Crew | Aerofun Virtual



 METAR AND TAF INFORMATION
METAR FOR LFOP
ADDS - METARS form results

(0812 UTC 22 July 2019)
Data provider http://aviationweather.gov/metar/data/
 
METAR text: LFOP 220800Z AUTO 18005KT 140V220 CAVOK 22/13 Q1025 NOSIG
Conditions at: LFOP (ROUEN/BOOS (AUT), FR) observed 0800 UTC 22 July 2019
Temperature: 22.0°C (72°F)
Dewpoint: 13.0°C (55°F) [RH = 57%]
Pressure (altimeter): 30.27 inches Hg (1025.0 mb)
Winds: from the S (180 degrees) at 6 MPH (5 knots; 2.6 m/s)
Visibility: 6 or more miles (10+ km)
Ceiling: ceiling and visibility are OK
Clouds: unknown
Weather: no significant weather observed at this time

METAR text: LFOP 220730Z AUTO 18005KT 120V210 CAVOK 21/13 Q1025 NOSIG
Conditions at: LFOP (ROUEN/BOOS (AUT), FR) observed 0730 UTC 22 July 2019
Temperature: 21.0°C (70°F)
Dewpoint: 13.0°C (55°F) [RH = 60%]
Pressure (altimeter): 30.27 inches Hg (1025.0 mb)
Winds: from the S (180 degrees) at 6 MPH (5 knots; 2.6 m/s)
Visibility: 6 or more miles (10+ km)
Ceiling: ceiling and visibility are OK
Clouds: unknown
Weather: no significant weather observed at this time

Forecast for: LFOP (ROUEN/BOOS (AUT), FR)
Text: TAF LFOP 220500Z 2206/2306 13005KT CAVOK
Forecast period: 0600 UTC 22 July 2019 to 0600 UTC 23 July 2019
Forecast type: FROM: standard forecast or significant change
Winds: from the SE (130 degrees) at 6 MPH (5 knots; 2.6 m/s)
Visibility: 6 or more miles 10+ km)
Ceiling: unknown
Clouds: missing
Weather: NSW  (no significant weather)

 AIRPORT MAP

 RUNWAY INFORMATION
Runway 04 Runway length 5577 ft Runway width 148 ft
Runway elevation 499 ft Runway displaced threshold 0 ft Runway heading 41
Runway 22 Runway length 5577 ft Runway width 148 ft
Runway elevation 512 ft Runway displaced threshold 0 ft Runway heading 221
Runway 05 Runway length 0 ft Runway width 0 ft
Runway elevation 499 ft Runway displaced threshold 0 ft Runway heading 0
Runway 23 Runway length 0 ft Runway width 0 ft
Runway elevation 507 ft Runway displaced threshold 0 ft Runway heading 0

 AIRPORT FREQUENCIES
Type APP Name ROUEN APP Frequency 118.575 MHZ
Type ATIS Name ATIS Frequency 120.725 MHZ
Type TWR Name ROUEN TWR Frequency 120.2 MHZ

 AIRPORT NEAR NAVIGATION AIDS